sensor_id;sensor_type;location;lat;lon;timestamp;P1;durP1;ratioP1;P2;durP2;ratioP2
43837;SDS011;65998;46.256;7.534;2023-05-10T00:02:11;91.38;;;41.00;;
43837;SDS011;65998;46.256;7.534;2023-05-10T00:04:36;90.10;;;40.42;;
43837;SDS011;65998;46.256;7.534;2023-05-10T00:07:02;93.87;;;42.13;;
43837;SDS011;65998;46.256;7.534;2023-05-10T00:09:28;89.97;;;41.08;;
43837;SDS011;65998;46.256;7.534;2023-05-10T00:11:54;87.68;;;39.55;;
43837;SDS011;65998;46.256;7.534;2023-05-10T00:14:20;88.87;;;40.70;;
43837;SDS011;65998;46.256;7.534;2023-05-10T00:16:46;86.93;;;38.95;;
43837;SDS011;65998;46.256;7.534;2023-05-10T00:19:12;89.80;;;39.10;;
43837;SDS011;65998;46.256;7.534;2023-05-10T00:21:38;91.25;;;40.67;;
43837;SDS011;65998;46.256;7.534;2023-05-10T00:24:03;85.25;;;37.58;;
43837;SDS011;65998;46.256;7.534;2023-05-10T00:26:30;83.43;;;37.77;;
43837;SDS011;65998;46.256;7.534;2023-05-10T00:28:55;84.93;;;37.58;;
43837;SDS011;65998;46.256;7.534;2023-05-10T00:31:21;79.72;;;36.08;;
43837;SDS011;65998;46.256;7.534;2023-05-10T00:33:47;78.60;;;35.60;;
43837;SDS011;65998;46.256;7.534;2023-05-10T00:36:13;80.60;;;36.60;;
43837;SDS011;65998;46.256;7.534;2023-05-10T00:38:39;79.87;;;36.30;;
43837;SDS011;65998;46.256;7.534;2023-05-10T00:41:05;79.75;;;35.47;;
43837;SDS011;65998;46.256;7.534;2023-05-10T00:43:30;76.82;;;34.55;;
43837;SDS011;65998;46.256;7.534;2023-05-10T00:45:56;78.67;;;35.13;;
43837;SDS011;65998;46.256;7.534;2023-05-10T00:48:23;76.78;;;34.60;;
43837;SDS011;65998;46.256;7.534;2023-05-10T00:50:49;78.13;;;33.95;;
43837;SDS011;65998;46.256;7.534;2023-05-10T00:53:15;76.20;;;33.42;;
43837;SDS011;65998;46.256;7.534;2023-05-10T00:55:41;77.40;;;34.38;;
43837;SDS011;65998;46.256;7.534;2023-05-10T00:58:07;75.32;;;33.15;;
43837;SDS011;65998;46.256;7.534;2023-05-10T01:00:33;74.20;;;32.53;;
43837;SDS011;65998;46.256;7.534;2023-05-10T01:02:59;69.10;;;31.43;;
43837;SDS011;65998;46.256;7.534;2023-05-10T01:05:25;75.03;;;34.05;;
43837;SDS011;65998;46.256;7.534;2023-05-10T01:07:51;71.90;;;32.83;;
43837;SDS011;65998;46.256;7.534;2023-05-10T01:10:17;73.35;;;32.28;;
43837;SDS011;65998;46.256;7.534;2023-05-10T01:12:43;70.18;;;31.50;;
43837;SDS011;65998;46.256;7.534;2023-05-10T01:15:11;68.75;;;31.10;;
43837;SDS011;65998;46.256;7.534;2023-05-10T01:17:40;72.25;;;31.13;;
43837;SDS011;65998;46.256;7.534;2023-05-10T01:20:10;69.33;;;31.13;;
43837;SDS011;65998;46.256;7.534;2023-05-10T01:33:56;67.37;;;29.87;;
43837;SDS011;65998;46.256;7.534;2023-05-10T01:41:54;66.75;;;29.50;;
43837;SDS011;65998;46.256;7.534;2023-05-10T01:44:34;61.28;;;28.02;;
43837;SDS011;65998;46.256;7.534;2023-05-10T01:47:06;66.00;;;29.03;;
43837;SDS011;65998;46.256;7.534;2023-05-10T01:49:45;66.97;;;29.00;;
43837;SDS011;65998;46.256;7.534;2023-05-10T01:52:16;62.17;;;28.45;;
43837;SDS011;65998;46.256;7.534;2023-05-10T01:54:47;63.03;;;27.35;;
43837;SDS011;65998;46.256;7.534;2023-05-10T01:57:18;60.22;;;27.75;;
43837;SDS011;65998;46.256;7.534;2023-05-10T01:59:48;60.50;;;27.50;;
43837;SDS011;65998;46.256;7.534;2023-05-10T02:02:17;62.33;;;28.40;;
43837;SDS011;65998;46.256;7.534;2023-05-10T02:04:46;59.65;;;26.83;;
43837;SDS011;65998;46.256;7.534;2023-05-10T02:07:14;59.15;;;26.80;;
43837;SDS011;65998;46.256;7.534;2023-05-10T02:09:41;58.20;;;26.25;;
43837;SDS011;65998;46.256;7.534;2023-05-10T02:12:10;55.77;;;26.13;;
43837;SDS011;65998;46.256;7.534;2023-05-10T02:14:39;58.58;;;27.27;;
43837;SDS011;65998;46.256;7.534;2023-05-10T02:17:07;62.35;;;26.98;;
43837;SDS011;65998;46.256;7.534;2023-05-10T02:19:34;56.17;;;25.42;;
43837;SDS011;65998;46.256;7.534;2023-05-10T02:22:03;54.38;;;24.33;;
43837;SDS011;65998;46.256;7.534;2023-05-10T02:24:29;53.30;;;24.47;;
43837;SDS011;65998;46.256;7.534;2023-05-10T02:26:57;53.20;;;23.77;;
43837;SDS011;65998;46.256;7.534;2023-05-10T02:29:25;56.25;;;24.92;;
43837;SDS011;65998;46.256;7.534;2023-05-10T02:31:54;51.97;;;23.70;;
43837;SDS011;65998;46.256;7.534;2023-05-10T02:34:23;50.15;;;22.90;;
43837;SDS011;65998;46.256;7.534;2023-05-10T02:36:52;54.23;;;23.53;;
43837;SDS011;65998;46.256;7.534;2023-05-10T02:39:19;51.58;;;22.85;;
43837;SDS011;65998;46.256;7.534;2023-05-10T02:41:47;51.17;;;23.48;;
43837;SDS011;65998;46.256;7.534;2023-05-10T02:44:14;49.67;;;22.77;;
43837;SDS011;65998;46.256;7.534;2023-05-10T02:46:43;54.97;;;24.23;;
43837;SDS011;65998;46.256;7.534;2023-05-10T02:49:09;51.37;;;22.87;;
43837;SDS011;65998;46.256;7.534;2023-05-10T02:51:36;50.67;;;23.05;;
43837;SDS011;65998;46.256;7.534;2023-05-10T02:54:11;47.83;;;21.83;;
43837;SDS011;65998;46.256;7.534;2023-05-10T02:56:42;46.83;;;21.75;;
43837;SDS011;65998;46.256;7.534;2023-05-10T02:59:12;47.15;;;21.13;;
43837;SDS011;65998;46.256;7.534;2023-05-10T03:01:38;47.13;;;21.60;;
43837;SDS011;65998;46.256;7.534;2023-05-10T03:04:04;46.65;;;20.63;;
43837;SDS011;65998;46.256;7.534;2023-05-10T03:06:30;45.72;;;20.70;;
43837;SDS011;65998;46.256;7.534;2023-05-10T03:08:56;45.17;;;20.33;;
43837;SDS011;65998;46.256;7.534;2023-05-10T03:14:31;46.25;;;19.98;;
43837;SDS011;65998;46.256;7.534;2023-05-10T03:17:33;45.15;;;18.95;;
43837;SDS011;65998;46.256;7.534;2023-05-10T03:20:09;45.20;;;19.33;;
43837;SDS011;65998;46.256;7.534;2023-05-10T03:22:40;43.10;;;18.97;;
43837;SDS011;65998;46.256;7.534;2023-05-10T03:25:12;40.30;;;18.35;;
43837;SDS011;65998;46.256;7.534;2023-05-10T03:27:42;44.75;;;18.90;;
43837;SDS011;65998;46.256;7.534;2023-05-10T03:30:12;42.45;;;19.20;;
43837;SDS011;65998;46.256;7.534;2023-05-10T03:32:39;41.67;;;19.00;;
43837;SDS011;65998;46.256;7.534;2023-05-10T03:35:11;39.23;;;18.00;;
43837;SDS011;65998;46.256;7.534;2023-05-10T03:37:38;42.33;;;18.33;;
43837;SDS011;65998;46.256;7.534;2023-05-10T03:40:04;40.88;;;17.95;;
43837;SDS011;65998;46.256;7.534;2023-05-10T03:42:32;41.00;;;18.55;;
43837;SDS011;65998;46.256;7.534;2023-05-10T03:44:58;39.83;;;18.20;;
43837;SDS011;65998;46.256;7.534;2023-05-10T03:47:24;40.45;;;17.25;;
43837;SDS011;65998;46.256;7.534;2023-05-10T03:49:49;37.77;;;17.27;;
43837;SDS011;65998;46.256;7.534;2023-05-10T03:52:15;40.92;;;17.88;;
43837;SDS011;65998;46.256;7.534;2023-05-10T03:54:41;37.53;;;17.17;;
43837;SDS011;65998;46.256;7.534;2023-05-10T03:57:07;36.83;;;15.40;;
43837;SDS011;65998;46.256;7.534;2023-05-10T03:59:33;36.78;;;16.17;;
43837;SDS011;65998;46.256;7.534;2023-05-10T04:01:59;36.95;;;15.90;;
43837;SDS011;65998;46.256;7.534;2023-05-10T04:04:24;36.30;;;16.33;;
43837;SDS011;65998;46.256;7.534;2023-05-10T04:06:50;32.28;;;14.68;;
43837;SDS011;65998;46.256;7.534;2023-05-10T04:09:16;31.90;;;15.47;;
43837;SDS011;65998;46.256;7.534;2023-05-10T04:11:42;36.97;;;16.20;;
43837;SDS011;65998;46.256;7.534;2023-05-10T04:14:08;31.17;;;14.50;;
43837;SDS011;65998;46.256;7.534;2023-05-10T04:16:34;34.25;;;15.15;;
43837;SDS011;65998;46.256;7.534;2023-05-10T04:18:59;29.73;;;14.25;;
43837;SDS011;65998;46.256;7.534;2023-05-10T04:21:25;32.57;;;14.70;;
43837;SDS011;65998;46.256;7.534;2023-05-10T04:23:51;32.63;;;14.18;;
43837;SDS011;65998;46.256;7.534;2023-05-10T04:26:17;30.95;;;13.98;;
43837;SDS011;65998;46.256;7.534;2023-05-10T04:28:42;29.92;;;13.30;;
43837;SDS011;65998;46.256;7.534;2023-05-10T04:31:09;28.85;;;13.48;;
43837;SDS011;65998;46.256;7.534;2023-05-10T04:33:35;31.88;;;14.00;;
43837;SDS011;65998;46.256;7.534;2023-05-10T04:36:02;29.30;;;13.23;;
43837;SDS011;65998;46.256;7.534;2023-05-10T04:38:28;28.67;;;12.63;;
43837;SDS011;65998;46.256;7.534;2023-05-10T04:41:03;26.63;;;12.50;;
43837;SDS011;65998;46.256;7.534;2023-05-10T04:43:32;29.77;;;12.63;;
43837;SDS011;65998;46.256;7.534;2023-05-10T04:45:58;28.35;;;12.13;;
43837;SDS011;65998;46.256;7.534;2023-05-10T04:48:23;29.25;;;12.85;;
43837;SDS011;65998;46.256;7.534;2023-05-10T04:50:49;26.40;;;12.38;;
43837;SDS011;65998;46.256;7.534;2023-05-10T04:53:15;26.30;;;12.27;;
43837;SDS011;65998;46.256;7.534;2023-05-10T04:55:41;26.80;;;11.77;;
43837;SDS011;65998;46.256;7.534;2023-05-10T04:58:06;28.07;;;12.03;;
43837;SDS011;65998;46.256;7.534;2023-05-10T05:00:33;26.55;;;11.60;;
43837;SDS011;65998;46.256;7.534;2023-05-10T05:02:59;26.50;;;12.35;;
43837;SDS011;65998;46.256;7.534;2023-05-10T05:05:25;23.70;;;11.27;;
43837;SDS011;65998;46.256;7.534;2023-05-10T05:07:51;24.98;;;11.38;;
43837;SDS011;65998;46.256;7.534;2023-05-10T05:10:17;24.55;;;10.52;;
43837;SDS011;65998;46.256;7.534;2023-05-10T05:12:42;23.40;;;10.67;;
43837;SDS011;65998;46.256;7.534;2023-05-10T05:15:08;24.83;;;10.32;;
43837;SDS011;65998;46.256;7.534;2023-05-10T05:17:35;22.20;;;10.23;;
43837;SDS011;65998;46.256;7.534;2023-05-10T05:20:01;21.70;;;9.85;;
43837;SDS011;65998;46.256;7.534;2023-05-10T05:22:27;24.42;;;10.35;;
43837;SDS011;65998;46.256;7.534;2023-05-10T05:24:56;24.48;;;10.80;;
43837;SDS011;65998;46.256;7.534;2023-05-10T05:27:22;23.08;;;9.82;;
43837;SDS011;65998;46.256;7.534;2023-05-10T05:29:48;23.13;;;10.80;;
43837;SDS011;65998;46.256;7.534;2023-05-10T05:32:14;22.52;;;9.85;;
43837;SDS011;65998;46.256;7.534;2023-05-10T05:34:40;21.35;;;9.48;;
43837;SDS011;65998;46.256;7.534;2023-05-10T05:37:05;22.73;;;10.07;;
43837;SDS011;65998;46.256;7.534;2023-05-10T05:39:31;21.63;;;9.15;;
43837;SDS011;65998;46.256;7.534;2023-05-10T05:41:57;21.10;;;9.13;;
43837;SDS011;65998;46.256;7.534;2023-05-10T05:44:23;20.55;;;8.55;;
43837;SDS011;65998;46.256;7.534;2023-05-10T05:46:49;20.93;;;9.33;;
43837;SDS011;65998;46.256;7.534;2023-05-10T05:49:14;21.10;;;9.10;;
43837;SDS011;65998;46.256;7.534;2023-05-10T05:51:40;18.17;;;8.40;;
43837;SDS011;65998;46.256;7.534;2023-05-10T05:54:06;20.07;;;8.73;;
43837;SDS011;65998;46.256;7.534;2023-05-10T05:56:32;20.38;;;9.48;;
43837;SDS011;65998;46.256;7.534;2023-05-10T05:58:58;19.93;;;8.70;;
43837;SDS011;65998;46.256;7.534;2023-05-10T06:01:23;18.83;;;8.57;;
43837;SDS011;65998;46.256;7.534;2023-05-10T06:03:49;18.70;;;8.23;;
43837;SDS011;65998;46.256;7.534;2023-05-10T06:06:15;18.00;;;8.48;;
43837;SDS011;65998;46.256;7.534;2023-05-10T06:08:41;18.98;;;7.95;;
43837;SDS011;65998;46.256;7.534;2023-05-10T06:11:07;18.10;;;7.90;;
43837;SDS011;65998;46.256;7.534;2023-05-10T06:13:32;18.30;;;8.20;;
43837;SDS011;65998;46.256;7.534;2023-05-10T06:15:58;15.88;;;7.20;;
43837;SDS011;65998;46.256;7.534;2023-05-10T06:18:24;18.60;;;7.97;;
43837;SDS011;65998;46.256;7.534;2023-05-10T06:20:50;17.45;;;7.43;;
43837;SDS011;65998;46.256;7.534;2023-05-10T06:23:16;18.40;;;7.57;;
43837;SDS011;65998;46.256;7.534;2023-05-10T06:25:42;17.63;;;7.60;;
43837;SDS011;65998;46.256;7.534;2023-05-10T06:28:07;16.98;;;7.55;;
43837;SDS011;65998;46.256;7.534;2023-05-10T06:30:35;14.82;;;7.55;;
43837;SDS011;65998;46.256;7.534;2023-05-10T06:33:01;16.17;;;7.68;;
43837;SDS011;65998;46.256;7.534;2023-05-10T06:35:27;15.85;;;7.15;;
43837;SDS011;65998;46.256;7.534;2023-05-10T06:37:53;16.23;;;6.93;;
43837;SDS011;65998;46.256;7.534;2023-05-10T06:40:20;15.32;;;7.18;;
43837;SDS011;65998;46.256;7.534;2023-05-10T06:42:47;15.80;;;7.20;;
43837;SDS011;65998;46.256;7.534;2023-05-10T06:45:14;15.80;;;6.90;;
43837;SDS011;65998;46.256;7.534;2023-05-10T06:47:40;15.60;;;6.97;;
43837;SDS011;65998;46.256;7.534;2023-05-10T06:50:09;14.00;;;6.27;;
43837;SDS011;65998;46.256;7.534;2023-05-10T06:52:35;14.45;;;6.85;;
43837;SDS011;65998;46.256;7.534;2023-05-10T06:55:02;15.77;;;6.43;;
43837;SDS011;65998;46.256;7.534;2023-05-10T06:57:28;14.80;;;6.25;;
43837;SDS011;65998;46.256;7.534;2023-05-10T06:59:54;14.55;;;6.10;;
43837;SDS011;65998;46.256;7.534;2023-05-10T07:02:20;14.77;;;6.07;;
43837;SDS011;65998;46.256;7.534;2023-05-10T07:04:46;14.60;;;6.38;;
43837;SDS011;65998;46.256;7.534;2023-05-10T07:07:13;14.32;;;5.88;;
43837;SDS011;65998;46.256;7.534;2023-05-10T07:09:40;12.70;;;5.77;;
43837;SDS011;65998;46.256;7.534;2023-05-10T07:12:05;14.65;;;6.13;;
43837;SDS011;65998;46.256;7.534;2023-05-10T07:14:32;13.95;;;6.00;;
43837;SDS011;65998;46.256;7.534;2023-05-10T07:16:57;14.03;;;5.60;;
43837;SDS011;65998;46.256;7.534;2023-05-10T07:19:23;12.27;;;5.70;;
43837;SDS011;65998;46.256;7.534;2023-05-10T07:21:49;12.55;;;5.55;;
43837;SDS011;65998;46.256;7.534;2023-05-10T07:24:15;13.33;;;5.77;;
43837;SDS011;65998;46.256;7.534;2023-05-10T07:26:40;11.43;;;5.15;;
43837;SDS011;65998;46.256;7.534;2023-05-10T07:29:06;13.45;;;5.53;;
43837;SDS011;65998;46.256;7.534;2023-05-10T07:31:32;11.63;;;5.40;;
43837;SDS011;65998;46.256;7.534;2023-05-10T07:33:58;13.27;;;5.50;;
43837;SDS011;65998;46.256;7.534;2023-05-10T07:36:24;11.70;;;5.37;;
43837;SDS011;65998;46.256;7.534;2023-05-10T07:38:50;13.70;;;5.78;;
43837;SDS011;65998;46.256;7.534;2023-05-10T07:41:15;12.50;;;5.47;;
43837;SDS011;65998;46.256;7.534;2023-05-10T07:43:41;10.73;;;4.68;;
43837;SDS011;65998;46.256;7.534;2023-05-10T07:46:07;11.90;;;5.53;;
43837;SDS011;65998;46.256;7.534;2023-05-10T07:48:33;10.80;;;4.60;;
43837;SDS011;65998;46.256;7.534;2023-05-10T07:50:59;10.80;;;5.00;;
43837;SDS011;65998;46.256;7.534;2023-05-10T07:53:25;11.40;;;4.97;;
43837;SDS011;65998;46.256;7.534;2023-05-10T07:55:52;10.77;;;4.78;;
43837;SDS011;65998;46.256;7.534;2023-05-10T07:58:22;11.85;;;4.93;;
43837;SDS011;65998;46.256;7.534;2023-05-10T08:00:48;12.02;;;4.93;;
43837;SDS011;65998;46.256;7.534;2023-05-10T08:03:14;11.77;;;4.97;;
43837;SDS011;65998;46.256;7.534;2023-05-10T08:05:40;11.82;;;5.20;;
43837;SDS011;65998;46.256;7.534;2023-05-10T08:08:06;11.90;;;4.95;;
43837;SDS011;65998;46.256;7.534;2023-05-10T08:10:32;12.73;;;5.10;;
43837;SDS011;65998;46.256;7.534;2023-05-10T08:12:58;10.80;;;4.45;;
43837;SDS011;65998;46.256;7.534;2023-05-10T08:15:24;10.13;;;4.57;;
43837;SDS011;65998;46.256;7.534;2023-05-10T08:17:53;10.63;;;4.65;;
43837;SDS011;65998;46.256;7.534;2023-05-10T08:20:19;11.48;;;4.38;;
43837;SDS011;65998;46.256;7.534;2023-05-10T08:22:45;11.30;;;4.63;;
43837;SDS011;65998;46.256;7.534;2023-05-10T08:25:11;9.25;;;4.22;;
43837;SDS011;65998;46.256;7.534;2023-05-10T08:27:37;10.43;;;4.32;;
43837;SDS011;65998;46.256;7.534;2023-05-10T08:30:03;10.90;;;4.78;;
43837;SDS011;65998;46.256;7.534;2023-05-10T08:32:29;11.02;;;4.70;;
43837;SDS011;65998;46.256;7.534;2023-05-10T08:34:55;10.60;;;4.40;;
43837;SDS011;65998;46.256;7.534;2023-05-10T08:37:21;9.32;;;4.07;;
43837;SDS011;65998;46.256;7.534;2023-05-10T08:39:48;10.43;;;4.90;;
43837;SDS011;65998;46.256;7.534;2023-05-10T08:42:15;9.95;;;4.07;;
43837;SDS011;65998;46.256;7.534;2023-05-10T08:44:44;11.00;;;4.20;;
43837;SDS011;65998;46.256;7.534;2023-05-10T08:47:13;9.90;;;4.40;;
43837;SDS011;65998;46.256;7.534;2023-05-10T08:49:41;9.32;;;4.20;;
43837;SDS011;65998;46.256;7.534;2023-05-10T08:52:09;10.98;;;4.53;;
43837;SDS011;65998;46.256;7.534;2023-05-10T08:54:38;9.18;;;3.75;;
43837;SDS011;65998;46.256;7.534;2023-05-10T08:57:04;8.07;;;3.70;;
43837;SDS011;65998;46.256;7.534;2023-05-10T08:59:31;10.10;;;4.15;;
43837;SDS011;65998;46.256;7.534;2023-05-10T09:01:57;9.98;;;3.95;;
43837;SDS011;65998;46.256;7.534;2023-05-10T09:04:24;8.90;;;3.70;;
43837;SDS011;65998;46.256;7.534;2023-05-10T09:06:50;9.50;;;4.00;;
43837;SDS011;65998;46.256;7.534;2023-05-10T09:09:16;9.50;;;3.87;;
43837;SDS011;65998;46.256;7.534;2023-05-10T09:11:43;9.40;;;4.13;;
43837;SDS011;65998;46.256;7.534;2023-05-10T09:14:09;8.60;;;4.05;;
43837;SDS011;65998;46.256;7.534;2023-05-10T09:16:38;8.17;;;3.73;;
43837;SDS011;65998;46.256;7.534;2023-05-10T09:19:05;8.90;;;3.83;;
43837;SDS011;65998;46.256;7.534;2023-05-10T09:21:31;7.95;;;3.45;;
43837;SDS011;65998;46.256;7.534;2023-05-10T09:23:57;8.27;;;3.42;;
43837;SDS011;65998;46.256;7.534;2023-05-10T09:26:28;8.07;;;3.80;;
43837;SDS011;65998;46.256;7.534;2023-05-10T09:28:55;8.77;;;3.55;;
43837;SDS011;65998;46.256;7.534;2023-05-10T09:31:42;8.88;;;3.70;;
43837;SDS011;65998;46.256;7.534;2023-05-10T09:34:15;9.27;;;3.63;;
43837;SDS011;65998;46.256;7.534;2023-05-10T09:36:55;8.00;;;3.55;;
43837;SDS011;65998;46.256;7.534;2023-05-10T09:39:34;9.25;;;3.75;;
43837;SDS011;65998;46.256;7.534;2023-05-10T09:42:02;7.57;;;3.10;;
43837;SDS011;65998;46.256;7.534;2023-05-10T09:44:29;7.78;;;3.13;;
43837;SDS011;65998;46.256;7.534;2023-05-10T09:46:57;8.15;;;3.25;;
43837;SDS011;65998;46.256;7.534;2023-05-10T09:49:22;7.07;;;3.13;;
43837;SDS011;65998;46.256;7.534;2023-05-10T09:52:09;8.40;;;3.03;;
43837;SDS011;65998;46.256;7.534;2023-05-10T09:54:34;7.55;;;3.10;;
43837;SDS011;65998;46.256;7.534;2023-05-10T09:57:00;8.07;;;3.40;;
43837;SDS011;65998;46.256;7.534;2023-05-10T09:59:26;7.57;;;3.00;;
43837;SDS011;65998;46.256;7.534;2023-05-10T10:01:57;8.30;;;3.08;;
43837;SDS011;65998;46.256;7.534;2023-05-10T10:04:25;8.07;;;3.23;;
43837;SDS011;65998;46.256;7.534;2023-05-10T10:07:04;8.63;;;3.22;;
43837;SDS011;65998;46.256;7.534;2023-05-10T10:09:30;7.72;;;3.10;;
43837;SDS011;65998;46.256;7.534;2023-05-10T10:11:57;6.50;;;2.92;;
43837;SDS011;65998;46.256;7.534;2023-05-10T10:14:24;7.72;;;3.00;;
43837;SDS011;65998;46.256;7.534;2023-05-10T10:16:50;7.73;;;2.80;;
43837;SDS011;65998;46.256;7.534;2023-05-10T10:19:17;6.75;;;2.65;;
43837;SDS011;65998;46.256;7.534;2023-05-10T10:21:44;5.75;;;2.60;;
43837;SDS011;65998;46.256;7.534;2023-05-10T10:24:10;7.80;;;2.90;;
43837;SDS011;65998;46.256;7.534;2023-05-10T10:26:36;7.65;;;2.80;;
43837;SDS011;65998;46.256;7.534;2023-05-10T10:34:26;7.25;;;2.70;;
43837;SDS011;65998;46.256;7.534;2023-05-10T10:36:54;6.20;;;2.57;;
43837;SDS011;65998;46.256;7.534;2023-05-10T10:39:21;6.97;;;2.63;;
43837;SDS011;65998;46.256;7.534;2023-05-10T10:41:49;6.78;;;2.67;;
43837;SDS011;65998;46.256;7.534;2023-05-10T10:49:32;6.20;;;2.27;;
43837;SDS011;65998;46.256;7.534;2023-05-10T10:55:09;6.30;;;2.35;;
43837;SDS011;65998;46.256;7.534;2023-05-10T10:57:52;6.97;;;2.40;;
43837;SDS011;65998;46.256;7.534;2023-05-10T11:00:29;6.20;;;2.30;;
43837;SDS011;65998;46.256;7.534;2023-05-10T11:03:03;5.43;;;2.33;;
43837;SDS011;65998;46.256;7.534;2023-05-10T11:10:53;5.03;;;2.20;;
43837;SDS011;65998;46.256;7.534;2023-05-10T11:15:59;5.40;;;2.20;;
43837;SDS011;65998;46.256;7.534;2023-05-10T11:18:36;6.82;;;2.17;;
43837;SDS011;65998;46.256;7.534;2023-05-10T11:21:03;4.72;;;1.77;;
43837;SDS011;65998;46.256;7.534;2023-05-10T11:23:30;4.85;;;1.80;;
43837;SDS011;65998;46.256;7.534;2023-05-10T11:25:57;5.25;;;2.08;;
43837;SDS011;65998;46.256;7.534;2023-05-10T11:28:24;4.20;;;1.90;;
43837;SDS011;65998;46.256;7.534;2023-05-10T11:30:51;5.15;;;2.00;;
43837;SDS011;65998;46.256;7.534;2023-05-10T11:33:17;4.97;;;1.90;;
43837;SDS011;65998;46.256;7.534;2023-05-10T11:35:44;5.03;;;1.77;;
43837;SDS011;65998;46.256;7.534;2023-05-10T11:38:12;4.82;;;1.70;;
43837;SDS011;65998;46.256;7.534;2023-05-10T11:40:39;4.90;;;2.07;;
43837;SDS011;65998;46.256;7.534;2023-05-10T11:43:06;4.88;;;1.90;;
43837;SDS011;65998;46.256;7.534;2023-05-10T11:45:34;5.75;;;2.30;;
43837;SDS011;65998;46.256;7.534;2023-05-10T11:48:00;5.93;;;1.90;;
43837;SDS011;65998;46.256;7.534;2023-05-10T11:50:27;5.47;;;2.20;;
43837;SDS011;65998;46.256;7.534;2023-05-10T11:52:54;4.90;;;1.83;;
43837;SDS011;65998;46.256;7.534;2023-05-10T11:55:22;4.45;;;1.70;;
43837;SDS011;65998;46.256;7.534;2023-05-10T11:57:51;5.07;;;1.90;;
43837;SDS011;65998;46.256;7.534;2023-05-10T12:00:18;5.10;;;1.70;;
43837;SDS011;65998;46.256;7.534;2023-05-10T12:02:44;4.07;;;1.50;;
43837;SDS011;65998;46.256;7.534;2023-05-10T12:05:10;4.57;;;1.53;;
43837;SDS011;65998;46.256;7.534;2023-05-10T12:07:36;5.43;;;1.90;;
43837;SDS011;65998;46.256;7.534;2023-05-10T12:10:11;5.80;;;2.20;;
43837;SDS011;65998;46.256;7.534;2023-05-10T12:12:42;4.20;;;1.65;;
43837;SDS011;65998;46.256;7.534;2023-05-10T12:15:19;4.30;;;1.70;;
43837;SDS011;65998;46.256;7.534;2023-05-10T12:17:46;4.72;;;1.60;;
43837;SDS011;65998;46.256;7.534;2023-05-10T12:25:17;4.90;;;1.70;;
43837;SDS011;65998;46.256;7.534;2023-05-10T12:28:26;4.80;;;1.80;;
43837;SDS011;65998;46.256;7.534;2023-05-10T12:30:34;4.60;;;1.70;;
43837;SDS011;65998;46.256;7.534;2023-05-10T12:35:58;4.30;;;1.50;;
43837;SDS011;65998;46.256;7.534;2023-05-10T12:38:25;3.58;;;1.30;;
43837;SDS011;65998;46.256;7.534;2023-05-10T12:40:53;4.03;;;1.50;;
43837;SDS011;65998;46.256;7.534;2023-05-10T12:43:19;3.97;;;1.50;;
43837;SDS011;65998;46.256;7.534;2023-05-10T12:45:44;4.07;;;1.60;;
43837;SDS011;65998;46.256;7.534;2023-05-10T12:48:10;4.63;;;1.60;;
43837;SDS011;65998;46.256;7.534;2023-05-10T12:50:36;4.85;;;1.70;;
43837;SDS011;65998;46.256;7.534;2023-05-10T12:53:02;3.80;;;1.50;;
43837;SDS011;65998;46.256;7.534;2023-05-10T12:55:28;3.77;;;1.30;;
43837;SDS011;65998;46.256;7.534;2023-05-10T12:57:54;4.05;;;1.60;;
43837;SDS011;65998;46.256;7.534;2023-05-10T13:00:19;4.30;;;1.53;;
43837;SDS011;65998;46.256;7.534;2023-05-10T13:02:45;4.25;;;1.63;;
43837;SDS011;65998;46.256;7.534;2023-05-10T13:05:11;3.60;;;1.40;;
43837;SDS011;65998;46.256;7.534;2023-05-10T13:07:37;3.55;;;1.25;;
43837;SDS011;65998;46.256;7.534;2023-05-10T13:10:03;4.55;;;1.48;;
43837;SDS011;65998;46.256;7.534;2023-05-10T13:12:30;3.93;;;1.23;;
43837;SDS011;65998;46.256;7.534;2023-05-10T13:14:55;4.90;;;1.50;;
43837;SDS011;65998;46.256;7.534;2023-05-10T13:17:21;4.22;;;1.45;;
43837;SDS011;65998;46.256;7.534;2023-05-10T13:19:47;3.57;;;1.30;;
43837;SDS011;65998;46.256;7.534;2023-05-10T13:22:13;3.95;;;1.20;;
43837;SDS011;65998;46.256;7.534;2023-05-10T13:24:39;4.35;;;1.38;;
43837;SDS011;65998;46.256;7.534;2023-05-10T13:27:05;3.53;;;1.30;;
43837;SDS011;65998;46.256;7.534;2023-05-10T13:29:31;4.50;;;1.40;;
43837;SDS011;65998;46.256;7.534;2023-05-10T13:31:57;3.22;;;1.20;;
43837;SDS011;65998;46.256;7.534;2023-05-10T13:34:22;4.33;;;1.53;;
43837;SDS011;65998;46.256;7.534;2023-05-10T13:36:48;3.58;;;1.15;;
43837;SDS011;65998;46.256;7.534;2023-05-10T13:39:14;3.40;;;1.27;;
43837;SDS011;65998;46.256;7.534;2023-05-10T13:41:40;3.78;;;1.20;;
43837;SDS011;65998;46.256;7.534;2023-05-10T13:44:06;3.23;;;1.20;;
43837;SDS011;65998;46.256;7.534;2023-05-10T13:46:32;3.38;;;1.00;;
43837;SDS011;65998;46.256;7.534;2023-05-10T13:48:57;3.25;;;1.30;;
43837;SDS011;65998;46.256;7.534;2023-05-10T13:51:23;3.30;;;1.13;;
43837;SDS011;65998;46.256;7.534;2023-05-10T13:53:49;3.97;;;1.00;;
43837;SDS011;65998;46.256;7.534;2023-05-10T13:56:15;3.65;;;1.00;;
43837;SDS011;65998;46.256;7.534;2023-05-10T13:58:41;4.03;;;1.13;;
43837;SDS011;65998;46.256;7.534;2023-05-10T14:01:07;2.70;;;1.00;;
43837;SDS011;65998;46.256;7.534;2023-05-10T14:03:32;3.97;;;1.10;;
43837;SDS011;65998;46.256;7.534;2023-05-10T14:05:59;5.03;;;1.15;;
43837;SDS011;65998;46.256;7.534;2023-05-10T14:08:24;3.25;;;1.10;;
43837;SDS011;65998;46.256;7.534;2023-05-10T14:10:50;3.30;;;1.13;;
43837;SDS011;65998;46.256;7.534;2023-05-10T14:13:16;3.92;;;1.10;;
43837;SDS011;65998;46.256;7.534;2023-05-10T14:15:42;3.42;;;1.00;;
43837;SDS011;65998;46.256;7.534;2023-05-10T14:18:07;3.07;;;0.90;;
43837;SDS011;65998;46.256;7.534;2023-05-10T14:20:33;2.88;;;1.08;;
43837;SDS011;65998;46.256;7.534;2023-05-10T14:22:59;2.97;;;0.93;;
43837;SDS011;65998;46.256;7.534;2023-05-10T14:25:25;2.90;;;1.10;;
43837;SDS011;65998;46.256;7.534;2023-05-10T14:27:51;2.63;;;0.80;;
43837;SDS011;65998;46.256;7.534;2023-05-10T14:30:17;3.15;;;1.00;;
43837;SDS011;65998;46.256;7.534;2023-05-10T14:32:43;2.45;;;0.93;;
43837;SDS011;65998;46.256;7.534;2023-05-10T14:35:09;2.90;;;0.90;;
43837;SDS011;65998;46.256;7.534;2023-05-10T14:37:34;3.08;;;1.02;;
43837;SDS011;65998;46.256;7.534;2023-05-10T14:40:00;3.38;;;0.90;;
43837;SDS011;65998;46.256;7.534;2023-05-10T14:42:26;2.57;;;0.90;;
43837;SDS011;65998;46.256;7.534;2023-05-10T14:44:52;2.50;;;0.75;;
43837;SDS011;65998;46.256;7.534;2023-05-10T14:47:17;2.93;;;1.00;;
43837;SDS011;65998;46.256;7.534;2023-05-10T14:49:43;3.17;;;1.00;;
43837;SDS011;65998;46.256;7.534;2023-05-10T14:52:09;3.67;;;0.83;;
43837;SDS011;65998;46.256;7.534;2023-05-10T14:54:35;2.58;;;0.90;;
43837;SDS011;65998;46.256;7.534;2023-05-10T14:57:01;2.87;;;0.97;;
43837;SDS011;65998;46.256;7.534;2023-05-10T14:59:26;3.10;;;0.88;;
43837;SDS011;65998;46.256;7.534;2023-05-10T15:01:52;2.95;;;0.90;;
43837;SDS011;65998;46.256;7.534;2023-05-10T15:04:18;3.17;;;0.90;;
43837;SDS011;65998;46.256;7.534;2023-05-10T15:06:44;2.92;;;0.90;;
43837;SDS011;65998;46.256;7.534;2023-05-10T15:09:10;3.25;;;0.68;;
43837;SDS011;65998;46.256;7.534;2023-05-10T15:11:35;2.55;;;0.93;;
43837;SDS011;65998;46.256;7.534;2023-05-10T15:14:01;2.40;;;0.60;;
43837;SDS011;65998;46.256;7.534;2023-05-10T15:16:27;2.67;;;0.80;;
43837;SDS011;65998;46.256;7.534;2023-05-10T15:18:53;2.85;;;0.85;;
43837;SDS011;65998;46.256;7.534;2023-05-10T15:21:19;3.10;;;0.70;;
43837;SDS011;65998;46.256;7.534;2023-05-10T15:23:44;2.75;;;0.70;;
43837;SDS011;65998;46.256;7.534;2023-05-10T15:26:10;2.40;;;0.90;;